Estación meteorológica de Mataró (Maresme, Maresme)

Consulta los datos en tiempo real de la estación meteorológica de Mataró





Hora UTC 09:10
Temperatura 19.2 ºC
Suelo 15 cm 29.6 ºC
Humedad 65.4 %
Presión 1011.7 hPa
Pluja 0.0 mm
Velocidad viento 9.5 km/h
Dirección viento W
Radiación solar 636.5 W/m²

Webcam

Datos diarios 2026-05-10



Hora UTC (invierno +1h; verano +2h)
Temperatura (ºC) Humedad (%) Presión (hPa) Velocidad viento (km/h) Precipitación (mm) Radiación solar (W/m²)
Hora UTC Aire Suelo 15 cm Humedad Presión Vel. Dir. Vel. Max Dir. Intent. máx 5 min. Rad. Sol.
00:05 14.4 13.3 86.5 1012.1 10.6 NNW 10.6 NNW 0.0 0.1
00:10 14.4 13.4 86.4 1012.0 11.4 NNW 14.5 NNW 0.0 0.1
00:15 14.4 13.4 86.1 1011.9 9.4 NNW 14.1 NW 0.0 0.1
00:20 14.3 13.2 86.3 1011.9 7.2 NW 11.3 NW 0.0 0.1
00:25 14.2 13.1 87.1 1011.8 7.3 NW 10.9 NW 0.0 0.1
00:30 14.1 13.0 87.8 1011.7 8.9 NNW 13.4 NNW 0.0 0.1
00:35 14.0 12.9 88.5 1011.7 8.3 NW 13.8 NNW 0.0 0.1
00:40 13.9 12.8 89.2 1011.6 9.0 NNW 14.5 NNW 0.0 0.1
00:45 13.9 12.8 89.7 1011.6 9.4 NNW 13.8 NNW 0.0 0.1
00:50 13.9 12.8 89.7 1011.5 7.6 NW 12.4 NNW 0.0 0.1
00:55 13.8 12.8 90.0 1011.5 7.7 NNW 12.0 NNW 0.0 0.1
01:00 13.8 12.8 90.2 1011.4 8.1 NNW 11.6 NW 0.0 0.1
01:05 13.8 12.7 90.2 1011.3 7.5 NNW 10.9 NNW 0.0 0.1
01:10 13.7 12.7 90.2 1011.3 8.2 NNW 11.6 NNW 0.0 0.1
01:15 13.7 12.7 90.1 1011.3 8.5 NW 11.6 NW 0.0 0.1
01:20 13.7 12.6 90.0 1011.3 7.0 NW 10.6 NNW 0.0 0.1
01:25 13.6 12.6 89.7 1011.2 9.8 NNW 14.8 NNW 0.0 0.1
01:30 13.7 12.6 89.0 1011.1 11.1 NNW 15.9 NNW 0.0 0.1
01:35 13.7 12.6 88.3 1011.1 12.8 NNW 18.4 NW 0.0 0.1
01:40 13.8 12.7 87.9 1011.2 12.9 NNW 18.0 NNW 0.0 0.1
01:45 13.8 12.8 88.1 1011.3 10.8 NNW 14.8 NW 0.0 0.1
01:50 13.8 12.8 88.6 1011.3 11.5 NNW 16.9 NNW 0.0 0.1
01:55 13.8 12.8 89.2 1011.4 13.3 NNW 18.4 NNW 0.0 0.1
02:00 13.6 12.8 90.0 1011.3 12.7 NNW 18.7 NNW 0.0 0.1
02:05 13.5 12.7 90.5 1011.3 10.3 NNW 15.2 NNW 0.0 0.1
02:10 13.4 12.6 90.7 1011.3 12.8 NNW 19.8 NNW 0.0 0.1
02:15 13.4 12.5 90.7 1011.3 11.8 NW 22.6 NW 0.0 0.1
02:20 13.3 12.5 90.7 1011.4 13.2 NW 22.2 NNW 0.0 0.1
02:25 13.2 12.4 91.3 1011.5 15.8 NNW 26.5 NNW 0.0 0.1
02:30 13.1 12.4 92.7 1011.5 16.1 NNW 24.7 NNW 0.0 0.1
02:35 13.0 12.3 93.6 1011.4 12.9 NNW 20.1 NNW 0.0 0.1
02:40 13.0 12.3 93.9 1011.4 9.6 NW 16.9 NNW 0.0 0.1
02:45 13.0 12.2 93.9 1011.4 10.1 NW 17.3 NW 0.0 0.1
02:50 13.0 12.2 93.8 1011.4 5.6 NW 13.1 NW 0.0 0.1
02:55 12.9 12.1 93.6 1011.4 7.1 NW 13.8 NW 0.0 0.1
03:00 12.9 12.0 93.3 1011.3 7.3 NW 11.6 NW 0.0 0.1
03:05 12.9 12.0 93.1 1011.2 11.8 NNW 16.6 NNW 0.0 0.1
03:10 13.1 12.1 92.5 1011.1 13.8 NNW 20.5 NNW 0.0 0.1
03:15 13.2 12.2 91.8 1011.1 14.0 NNW 19.1 NNW 0.0 0.1
03:20 13.2 12.3 91.0 1011.1 13.5 NNW 20.5 NNW 0.0 0.1
03:25 13.3 12.4 90.3 1011.1 12.9 NNW 19.4 NNW 0.0 0.1
03:30 13.3 12.4 89.7 1011.1 10.0 NNW 15.9 NNW 0.0 0.1
03:35 13.3 12.4 89.2 1011.0 9.1 NNW 15.5 NNW 0.0 0.1
03:40 13.3 12.4 88.7 1010.9 9.5 NW 14.8 NNW 0.0 0.1
03:45 13.3 12.3 88.5 1010.9 11.4 NNW 17.6 NNW 0.0 0.1
03:50 13.3 12.3 88.0 1010.9 12.8 NNW 22.2 NW 0.0 0.1
03:55 13.4 12.3 87.0 1010.8 14.7 NNW 23.3 NNW 0.0 0.1
04:00 13.5 12.5 86.0 1010.9 16.0 NNW 24.0 NNW 0.0 0.1
04:05 13.5 12.6 85.8 1010.9 16.4 NNW 22.6 N 0.0 0.1
04:10 13.5 12.6 86.0 1010.9 15.9 NNW 22.9 NNW 0.0 0.1
04:15 13.4 12.6 86.2 1010.9 13.6 NNW 20.1 NNW 0.0 0.2
04:20 13.3 12.5 86.7 1010.9 13.5 NNW 18.7 NNW 0.0 0.4
04:25 13.2 12.5 86.8 1010.9 14.0 NNW 19.8 N 0.0 0.9
04:30 13.2 12.4 86.5 1010.9 14.7 NNW 21.5 NNW 0.0 1.9
04:35 13.2 12.4 86.6 1010.9 14.8 NNW 21.2 N 0.0 3.5
04:40 13.2 12.4 86.7 1010.8 15.1 NNW 21.9 NW 0.0 5.7
04:45 13.2 12.4 86.1 1010.8 15.8 NNW 22.2 NNW 0.0 7.6
04:50 13.3 12.5 85.4 1010.7 16.1 NNW 21.5 NNW 0.0 9.4
04:55 13.3 12.5 84.7 1010.7 17.1 NNW 22.9 NNW 0.0 11.3
05:00 13.4 12.6 84.6 1010.7 18.1 NNW 25.4 N 0.0 12.9
05:05 13.3 12.7 85.2 1010.8 18.9 NNW 26.5 NNW 0.0 14.7
05:10 13.2 12.7 85.8 1010.8 18.6 NNW 26.8 NNW 0.0 16.5
05:15 13.2 12.7 85.8 1010.9 18.3 NNW 28.2 NNW 0.0 18.4
05:20 13.2 12.6 85.8 1010.9 18.6 NNW 24.7 NNW 0.0 20.1
05:25 13.1 12.6 85.9 1010.9 18.8 NNW 25.4 NW 0.0 23.7
05:30 13.1 12.6 86.0 1010.9 18.8 NNW 25.8 NNW 0.0 29.8
05:35 13.2 12.7 85.6 1010.9 14.5 NNW 20.5 NW 0.0 119.8
05:40 13.3 13.4 85.0 1011.0 11.5 NNW 15.5 NNW 0.0 138.4
05:45 13.5 14.4 84.4 1011.0 10.1 NW 13.8 NNW 0.0 151.6
05:50 13.7 15.4 83.9 1011.0 9.0 NW 13.4 NW 0.0 164.7
05:55 13.8 16.5 83.7 1011.1 6.3 WNW 11.6 W 0.0 177.8
06:00 13.9 17.6 83.8 1011.0 5.6 WNW 13.4 NW 0.0 191.2
06:05 14.1 18.5 83.3 1011.0 6.4 WNW 10.2 N 0.0 204.9
06:10 14.2 19.1 83.4 1010.9 4.6 WSW 13.1 W 0.0 219.2
06:15 14.3 19.8 81.7 1010.9 2.5 WSW 7.1 W 0.0 233.8
06:20 14.5 20.7 81.1 1011.0 3.3 W 6.7 W 0.0 248.2
06:25 14.7 21.4 80.9 1011.1 1.9 WSW 6.7 SW 0.0 262.8
06:30 14.9 21.8 79.6 1011.1 6.4 WSW 12.4 W 0.0 277.2
06:35 14.9 22.0 80.1 1011.1 6.5 W 13.4 WSW 0.0 291.4
06:40 14.9 22.2 79.2 1011.2 6.0 W 10.2 W 0.0 305.8
06:45 15.2 22.5 78.8 1011.2 4.7 W 12.0 WSW 0.0 320.0
06:50 15.3 23.0 77.9 1011.3 3.6 WNW 9.9 WNW 0.0 334.2
06:55 15.4 23.3 78.1 1011.3 3.5 W 6.4 WSW 0.0 348.0
07:00 15.7 23.6 77.5 1011.3 4.6 WNW 12.4 W 0.0 362.3
07:05 15.7 24.0 76.8 1011.3 5.4 WNW 12.0 W 0.0 376.1
07:10 15.9 24.4 76.8 1011.3 4.4 WNW 8.8 W 0.0 389.5
07:15 16.2 25.0 76.3 1011.3 6.0 W 12.4 W 0.0 402.8
07:20 16.3 25.1 75.7 1011.3 9.1 WNW 24.0 W 0.0 416.1
07:25 16.4 24.8 73.1 1011.4 15.7 W 26.8 W 0.0 430.0
07:30 16.3 24.2 73.0 1011.4 13.8 W 23.3 W 0.0 443.8
07:35 16.4 24.0 74.3 1011.4 12.3 WNW 21.2 W 0.0 457.6
07:40 16.6 24.1 73.0 1011.4 13.1 WNW 21.2 WSW 0.0 471.3
07:45 16.7 24.2 73.3 1011.3 12.2 WNW 22.2 WNW 0.0 485.2
07:50 16.9 24.3 73.7 1011.4 10.4 WNW 21.2 W 0.0 498.1
07:55 16.9 24.4 72.9 1011.4 15.6 W 24.0 W 0.0 510.9
08:00 17.0 24.6 72.5 1011.4 13.4 W 27.2 W 0.0 523.6
08:05 17.2 24.9 72.0 1011.5 13.3 W 26.5 W 0.0 536.1
08:10 17.3 25.3 71.1 1011.5 12.4 W 22.9 WNW 0.0 548.5
08:15 17.5 25.7 70.9 1011.5 10.0 W 20.5 WNW 0.0 561.4
08:20 17.7 26.4 69.4 1011.6 11.9 W 19.8 W 0.0 573.5
08:25 17.9 26.7 68.8 1011.6 11.1 W 19.1 WNW 0.0 586.1
08:30 18.0 27.4 68.8 1011.6 10.7 W 19.4 W 0.0 593.4
08:35 18.2 27.7 69.0 1011.7 8.8 W 16.9 WNW 0.0 610.2
08:40 18.3 28.2 67.6 1011.6 8.0 WNW 18.7 NW 0.0 624.5
08:45 18.6 29.0 69.6 1011.6 6.1 W 13.4 W 0.0 636.9
08:50 18.9 29.3 68.3 1011.7 7.3 NW 18.7 NNW 0.0 648.5
08:55 19.2 29.5 67.7 1011.7 5.4 W 14.8 NNW 0.0 650.0
09:00 19.4 29.9 65.9 1011.6 9.7 WNW 21.2 NW 0.0 671.5
09:05 19.2 29.7 66.0 1011.7 8.5 W 18.7 W 0.0 683.0
09:10 19.2 29.6 65.4 1011.7 9.5 W 15.9 WSW 0.0 636.5
Máxima 19.4 29.9 93.9 1012.1 18.9 NNW 28.2 NNW 0.0 683.0
Mínima 12.9 12.0 65.4 1010.7
Total 0.0